createdAt,value
2022-11-01T00:01:40.925Z,47.84
2022-11-01T00:04:09.796Z,47.87
2022-11-01T00:06:38.219Z,48.21
2022-11-01T00:09:06.375Z,47.82
2022-11-01T00:11:34.317Z,47.78
2022-11-01T00:14:03.785Z,47.72
2022-11-01T00:16:31.742Z,48.05
2022-11-01T00:18:59.769Z,48.04
2022-11-01T00:21:27.837Z,48.11
2022-11-01T00:23:55.717Z,47.99
2022-11-01T00:26:24.943Z,48.09
2022-11-01T00:28:54.049Z,48.12
2022-11-01T00:31:23.606Z,48.00
2022-11-01T00:33:51.626Z,48.19
2022-11-01T00:36:19.736Z,48.55
2022-11-01T00:38:50.766Z,48.85
2022-11-01T00:41:20.672Z,48.84
2022-11-01T00:43:48.653Z,48.78
2022-11-01T00:46:16.963Z,48.78
2022-11-01T00:48:46.397Z,49.02
2022-11-01T00:51:14.224Z,49.17
2022-11-01T00:53:42.119Z,49.61
2022-11-01T00:56:10.331Z,49.46
2022-11-01T00:58:38.175Z,49.77
2022-11-01T01:01:06.351Z,49.75
2022-11-01T01:03:34.252Z,50.28
2022-11-01T01:06:03.907Z,50.14
2022-11-01T01:08:31.840Z,50.41
2022-11-01T01:10:59.744Z,50.98
2022-11-01T01:13:27.600Z,51.90
2022-11-01T01:15:56.027Z,52.99
2022-11-01T01:18:24.157Z,53.80
2022-11-01T01:20:52.059Z,54.49
2022-11-01T01:23:21.438Z,54.01
2022-11-01T01:25:49.288Z,54.55
2022-11-01T01:28:17.134Z,54.63
2022-11-01T01:30:45.055Z,54.72
2022-11-01T01:35:45.833Z,55.65
2022-11-01T01:38:13.691Z,55.75
2022-11-01T01:40:43.074Z,55.46
2022-11-01T01:43:12.491Z,56.14
2022-11-01T01:45:41.957Z,56.63
2022-11-01T01:48:14.357Z,56.97
2022-11-01T01:50:47.445Z,56.98
2022-11-01T01:53:19.021Z,56.83
2022-11-01T01:55:52.203Z,57.39
2022-11-01T01:58:23.438Z,57.77
2022-11-01T02:00:51.956Z,57.56
2022-11-01T02:03:19.990Z,58.40
2022-11-01T02:05:51.585Z,58.53
2022-11-01T02:08:27.626Z,58.39
2022-11-01T02:10:59.360Z,58.36
2022-11-01T02:13:27.420Z,58.13
2022-11-01T02:16:05.160Z,58.89
2022-11-01T02:18:37.372Z,58.74
2022-11-01T02:21:47.505Z,59.01
2022-11-01T02:24:51.047Z,58.58
2022-11-01T02:27:24.710Z,57.53
2022-11-01T02:30:05.574Z,57.06
2022-11-01T02:32:39.548Z,57.69
2022-11-01T02:35:13.905Z,57.68
2022-11-01T02:37:48.350Z,57.70
2022-11-01T02:40:18.516Z,58.16
2022-11-01T02:42:49.661Z,58.36
2022-11-01T02:45:29.035Z,58.04
2022-11-01T02:48:00.383Z,58.59
2022-11-01T02:50:29.668Z,58.74
2022-11-01T02:52:57.673Z,58.00
2022-11-01T02:55:30.748Z,58.26
2022-11-01T02:58:00.986Z,57.53
2022-11-01T03:00:31.073Z,57.38
2022-11-01T03:03:07.196Z,57.72
2022-11-01T03:05:42.566Z,57.88
2022-11-01T03:08:11.639Z,57.56
2022-11-01T03:10:47.141Z,57.96
2022-11-01T03:13:29.003Z,58.01
2022-11-01T03:16:06.823Z,57.47
2022-11-01T03:18:37.199Z,56.85
2022-11-01T03:21:15.787Z,56.34
2022-11-01T03:23:50.632Z,56.90
2022-11-01T03:26:25.952Z,57.93
2022-11-01T03:28:57.409Z,58.87
2022-11-01T03:31:29.212Z,59.41
2022-11-01T03:34:04.113Z,59.81
2022-11-01T03:36:34.264Z,59.71
2022-11-01T03:39:05.797Z,60.14
2022-11-01T03:41:36.077Z,60.32
2022-11-01T03:44:04.401Z,60.54
2022-11-01T03:46:32.846Z,60.69
2022-11-01T03:49:02.079Z,60.32
2022-11-01T03:51:30.531Z,60.63
2022-11-01T03:53:58.634Z,60.97
2022-11-01T03:56:27.010Z,60.43
2022-11-01T03:58:55.081Z,59.79
2022-11-01T04:01:23.018Z,60.84
2022-11-01T04:03:51.017Z,60.48
2022-11-01T04:06:20.574Z,60.60
2022-11-01T04:08:49.344Z,60.86
2022-11-01T04:11:17.299Z,61.42
2022-11-01T04:13:45.351Z,61.37
2022-11-01T04:16:30.848Z,61.25
2022-11-01T04:19:16.551Z,61.01
2022-11-01T04:21:46.053Z,61.61
2022-11-01T04:24:21.068Z,61.78
2022-11-01T04:26:49.301Z,61.84
2022-11-01T04:29:17.196Z,61.99
2022-11-01T04:31:45.086Z,61.78
2022-11-01T04:34:12.942Z,61.67
2022-11-01T04:36:40.808Z,61.32
2022-11-01T04:39:11.178Z,60.78
2022-11-01T04:41:39.170Z,61.13
2022-11-01T04:44:07.184Z,62.42
2022-11-01T04:46:35.087Z,62.49
2022-11-01T04:49:02.970Z,62.05
2022-11-01T04:51:30.905Z,62.54
2022-11-01T04:53:58.831Z,62.12
2022-11-01T04:56:28.140Z,61.42
2022-11-01T04:58:56.027Z,62.30
2022-11-01T05:01:23.950Z,62.43
2022-11-01T05:03:51.891Z,62.54
2022-11-01T05:06:19.880Z,62.94
2022-11-01T05:08:47.740Z,63.15
2022-11-01T05:11:15.616Z,62.69
2022-11-01T05:13:44.728Z,63.20
2022-11-01T05:16:20.630Z,64.15
2022-11-01T05:18:49.439Z,63.71
2022-11-01T05:21:17.448Z,64.14
2022-11-01T05:23:45.274Z,64.33
2022-11-01T05:26:13.111Z,63.81
2022-11-01T05:28:41.065Z,62.75
2022-11-01T05:31:10.887Z,64.26
2022-11-01T05:33:38.760Z,64.07
2022-11-01T05:36:07.469Z,63.77
2022-11-01T05:38:35.354Z,64.87
2022-11-01T05:41:03.791Z,65.51
2022-11-01T05:43:31.827Z,64.83
2022-11-01T05:45:59.871Z,64.38
2022-11-01T05:48:29.305Z,64.80
2022-11-01T05:50:57.187Z,64.82
2022-11-01T05:53:25.032Z,64.79
2022-11-01T05:55:55.163Z,64.53
2022-11-01T05:58:26.517Z,64.43
2022-11-01T06:00:58.821Z,63.29
2022-11-01T06:03:26.700Z,63.69
2022-11-01T06:05:55.909Z,63.72
2022-11-01T06:08:23.785Z,63.47
2022-11-01T06:10:51.928Z,64.59
2022-11-01T06:13:20.189Z,64.32
2022-11-01T06:15:48.062Z,64.34
2022-11-01T06:18:15.930Z,64.00
2022-11-01T06:20:43.771Z,63.91
2022-11-01T06:23:13.052Z,63.94
2022-11-01T06:25:40.902Z,64.43
2022-11-01T06:28:09.330Z,64.62
2022-11-01T06:30:38.986Z,64.97
2022-11-01T06:33:09.422Z,65.00
2022-11-01T06:35:37.572Z,64.73
2022-11-01T06:38:06.809Z,65.04
2022-11-01T06:40:36.582Z,65.50
2022-11-01T06:43:06.432Z,65.10
2022-11-01T06:45:34.518Z,65.22
2022-11-01T06:48:02.688Z,64.58
2022-11-01T06:50:31.263Z,64.69
2022-11-01T06:52:59.370Z,65.23
2022-11-01T06:55:27.291Z,64.60
2022-11-01T06:57:57.331Z,64.22
2022-11-01T07:00:25.906Z,64.58
2022-11-01T07:02:59.938Z,64.01
2022-11-01T07:05:30.433Z,64.01
2022-11-01T07:08:02.715Z,62.07
2022-11-01T07:10:31.000Z,61.04
2022-11-01T07:13:01.161Z,60.67
2022-11-01T07:15:29.607Z,60.24
2022-11-01T07:17:57.924Z,59.41
2022-11-01T07:20:26.344Z,58.77
2022-11-01T07:23:01.073Z,59.28
2022-11-01T07:25:30.357Z,58.52
2022-11-01T07:27:59.913Z,58.24
2022-11-01T07:30:28.918Z,58.00
2022-11-01T07:32:57.279Z,57.04
2022-11-01T07:35:25.533Z,58.04
2022-11-01T07:37:53.456Z,57.96
2022-11-01T07:40:27.437Z,57.48
2022-11-01T07:42:56.858Z,57.04
2022-11-01T07:45:26.748Z,57.48
2022-11-01T07:47:54.965Z,57.25
2022-11-01T07:50:22.836Z,58.20
2022-11-01T07:53:00.352Z,57.02
2022-11-01T07:55:28.392Z,56.87
2022-11-01T07:57:56.279Z,56.29
2022-11-01T08:00:26.255Z,56.08
2022-11-01T08:02:54.220Z,55.92
2022-11-01T08:05:22.167Z,55.12
2022-11-01T08:07:49.990Z,55.01
2022-11-01T08:10:18.076Z,54.10
2022-11-01T08:12:45.947Z,53.80
2022-11-01T08:15:13.852Z,54.01
2022-11-01T08:17:43.127Z,53.76
2022-11-01T08:20:12.487Z,53.76
2022-11-01T08:22:41.346Z,53.16
2022-11-01T08:25:09.897Z,52.13
2022-11-01T08:27:38.046Z,52.37
2022-11-01T08:30:06.947Z,52.19
2022-11-01T08:32:34.765Z,51.57
2022-11-01T08:35:04.452Z,50.63
2022-11-01T08:37:32.466Z,50.15
2022-11-01T08:40:00.441Z,50.04
2022-11-01T08:42:28.518Z,49.43
2022-11-01T08:44:56.413Z,48.92
2022-11-01T08:47:24.720Z,48.59
2022-11-01T08:49:52.678Z,49.82
2022-11-01T08:52:21.948Z,49.52
2022-11-01T08:54:49.747Z,50.16
2022-11-01T08:57:17.611Z,50.01
2022-11-01T08:59:45.531Z,49.95
2022-11-01T09:02:13.574Z,50.61
2022-11-01T09:04:41.567Z,50.02
2022-11-01T09:07:09.398Z,49.62
2022-11-01T09:09:38.660Z,49.05
2022-11-01T09:12:10.945Z,48.46
2022-11-01T09:14:41.919Z,48.48
2022-11-01T09:17:09.861Z,48.02
2022-11-01T09:19:37.987Z,47.83
2022-11-01T09:22:05.778Z,47.26
2022-11-01T09:24:33.722Z,47.13
2022-11-01T09:27:03.066Z,46.86
2022-11-01T09:29:31.007Z,46.56
2022-11-01T09:31:59.005Z,45.97
2022-11-01T09:34:27.015Z,45.83
2022-11-01T09:36:54.844Z,45.40
2022-11-01T09:39:23.028Z,45.48
2022-11-01T09:41:52.863Z,44.25
2022-11-01T09:44:26.908Z,44.17
2022-11-01T09:47:01.425Z,43.94
2022-11-01T09:49:32.437Z,43.43
2022-11-01T09:52:00.672Z,41.97
2022-11-01T09:54:29.400Z,41.52
2022-11-01T09:57:04.906Z,41.94
2022-11-01T09:59:37.048Z,41.32
2022-11-01T10:02:25.729Z,40.97
2022-11-01T10:05:06.470Z,40.81
2022-11-01T10:07:42.724Z,41.08
2022-11-01T10:10:20.797Z,40.67
2022-11-01T10:12:56.641Z,40.47
2022-11-01T10:15:37.798Z,40.54
2022-11-01T10:18:16.042Z,40.46
2022-11-01T10:20:44.208Z,40.33
2022-11-01T10:23:13.812Z,39.85
2022-11-01T10:25:44.563Z,39.75
2022-11-01T10:28:17.058Z,39.51
2022-11-01T10:30:49.306Z,39.47
2022-11-01T10:33:25.795Z,38.90
2022-11-01T10:35:57.334Z,38.44
2022-11-01T10:38:59.516Z,37.42
2022-11-01T10:41:28.576Z,37.49
2022-11-01T10:43:58.123Z,37.33
2022-11-01T10:46:30.507Z,36.02
2022-11-01T10:49:01.310Z,35.98
2022-11-01T10:51:30.832Z,36.50
2022-11-01T10:54:02.357Z,36.09
2022-11-01T10:56:34.556Z,36.75
2022-11-01T10:59:04.239Z,35.73
2022-11-01T11:01:42.539Z,36.37
2022-11-01T11:04:12.912Z,36.52
2022-11-01T11:06:42.331Z,36.23
2022-11-01T11:09:20.421Z,36.60
2022-11-01T11:11:49.369Z,35.81
2022-11-01T11:14:17.521Z,35.65
2022-11-01T11:16:48.594Z,33.92
2022-11-01T11:19:20.012Z,32.24
2022-11-01T11:21:49.698Z,32.04
2022-11-01T11:24:19.772Z,33.77
2022-11-01T11:26:53.103Z,33.62
2022-11-01T11:29:37.820Z,31.34
2022-11-01T11:32:09.460Z,29.76
2022-11-01T11:34:38.285Z,28.18
2022-11-01T11:37:08.490Z,29.61
2022-11-01T11:39:37.677Z,30.10
2022-11-01T11:42:15.308Z,31.01
2022-11-01T11:44:45.457Z,32.98
2022-11-01T11:47:24.389Z,31.41
2022-11-01T11:49:54.063Z,32.68
2022-11-01T11:52:28.231Z,32.46
2022-11-01T11:54:56.578Z,30.79
2022-11-01T11:57:26.868Z,28.07
2022-11-01T11:59:56.725Z,30.93
2022-11-01T12:02:28.574Z,32.71
2022-11-01T12:04:58.306Z,34.01
2022-11-01T12:07:29.108Z,33.05
2022-11-01T12:09:57.856Z,31.93
2022-11-01T12:12:27.587Z,29.82
2022-11-01T12:14:56.001Z,28.80
2022-11-01T12:17:31.308Z,30.20
2022-11-01T12:20:10.974Z,28.01
2022-11-01T12:22:40.878Z,30.81
2022-11-01T12:25:14.066Z,31.32
2022-11-01T14:46:18.862Z,30.82
2022-11-01T14:48:50.178Z,31.93
2022-11-01T14:51:22.212Z,31.73
2022-11-01T14:53:53.961Z,31.00
2022-11-01T14:56:23.445Z,31.35
2022-11-01T14:58:51.322Z,32.83
2022-11-01T15:01:23.355Z,34.68
2022-11-01T15:03:55.173Z,35.39
2022-11-01T15:06:24.584Z,36.12
2022-11-01T15:08:52.574Z,36.92
2022-11-01T15:11:20.664Z,37.78
2022-11-01T15:13:48.199Z,38.83
2022-11-01T15:16:16.468Z,38.70
2022-11-01T15:18:48.802Z,39.11
2022-11-01T15:21:21.173Z,39.41
2022-11-01T15:23:51.655Z,39.40
2022-11-01T15:26:21.940Z,39.76
2022-11-01T15:28:52.338Z,40.49
2022-11-01T15:31:20.429Z,41.10
2022-11-01T15:33:55.648Z,41.65
2022-11-01T15:36:24.817Z,41.86
2022-11-01T15:38:54.599Z,42.30
2022-11-01T15:41:27.176Z,42.55
2022-11-01T15:43:55.704Z,42.68
2022-11-01T15:46:23.325Z,43.30
2022-11-01T15:48:50.862Z,43.53
2022-11-01T15:51:20.497Z,43.94
2022-11-01T15:53:49.342Z,43.95
2022-11-01T15:56:20.145Z,44.49
2022-11-01T15:58:48.467Z,44.85
2022-11-01T16:01:17.669Z,44.30
2022-11-01T16:03:48.348Z,44.21
2022-11-01T16:06:17.478Z,44.89
2022-11-01T16:08:47.827Z,45.55
2022-11-01T16:11:17.665Z,45.63
2022-11-01T16:13:49.428Z,45.46
2022-11-01T16:16:17.352Z,45.82
2022-11-01T16:18:46.129Z,45.83
2022-11-01T16:21:28.848Z,45.76
2022-11-01T16:24:05.331Z,45.09
2022-11-01T16:26:52.970Z,45.46
2022-11-01T16:29:38.723Z,45.10
2022-11-01T16:32:09.843Z,45.40
2022-11-01T16:34:37.929Z,45.88
2022-11-01T16:37:14.815Z,46.09
2022-11-01T16:39:45.040Z,45.90
2022-11-01T16:42:13.046Z,45.96
2022-11-01T16:44:41.149Z,45.90
2022-11-01T16:47:11.204Z,45.59
2022-11-01T16:49:46.698Z,45.67
2022-11-01T16:52:14.527Z,45.59
2022-11-01T16:54:42.960Z,46.01
2022-11-01T16:57:21.971Z,46.01
2022-11-01T16:59:51.037Z,45.96
2022-11-01T17:02:21.154Z,46.42
2022-11-01T17:04:50.819Z,46.44
2022-11-01T17:07:18.612Z,46.86
2022-11-01T17:09:46.896Z,46.59
2022-11-01T17:12:14.700Z,46.37
2022-11-01T17:14:44.799Z,47.05
2022-11-01T17:17:17.389Z,47.51
2022-11-01T17:19:47.577Z,47.85
2022-11-01T17:22:17.809Z,47.98
2022-11-01T17:24:45.934Z,48.11
2022-11-01T17:27:13.850Z,48.56
2022-11-01T17:29:43.075Z,48.28
2022-11-01T17:32:11.463Z,48.51
2022-11-01T17:34:39.487Z,48.66
2022-11-01T17:37:07.425Z,49.00
2022-11-01T17:39:35.263Z,49.00
2022-11-01T17:42:03.023Z,49.72
2022-11-01T17:44:30.981Z,49.88
2022-11-01T17:47:00.449Z,49.88
2022-11-01T17:49:28.221Z,50.14
2022-11-01T17:51:56.213Z,50.43
2022-11-01T17:56:56.880Z,50.87
2022-11-01T17:59:24.624Z,50.93
2022-11-01T18:01:52.557Z,51.10
2022-11-01T18:04:21.684Z,51.56
2022-11-01T18:06:49.469Z,51.61
2022-11-01T18:09:20.940Z,51.74
2022-11-01T18:11:53.679Z,52.03
2022-11-01T18:14:27.387Z,52.27
2022-11-01T18:16:59.716Z,52.38
2022-11-01T18:19:41.375Z,52.49
2022-11-01T18:22:15.872Z,52.75
2022-11-01T18:24:47.542Z,52.81
2022-11-01T18:27:19.384Z,52.67
2022-11-01T18:29:51.153Z,53.13
2022-11-01T18:32:24.576Z,53.15
2022-11-01T18:34:58.379Z,53.03
2022-11-01T18:37:30.456Z,53.36
2022-11-01T18:40:03.152Z,52.84
2022-11-01T18:42:31.727Z,53.28
2022-11-01T18:45:01.201Z,53.22
2022-11-01T18:47:34.787Z,53.21
2022-11-01T18:50:09.052Z,53.24
2022-11-01T18:52:38.396Z,53.64
2022-11-01T18:55:13.625Z,53.78
2022-11-01T18:57:41.348Z,53.83
2022-11-01T19:00:15.697Z,54.43
2022-11-01T19:02:43.461Z,54.41
2022-11-01T19:05:15.279Z,54.81
2022-11-01T19:08:09.598Z,54.91
2022-11-01T19:10:30.840Z,54.83
2022-11-01T19:12:58.578Z,54.39
2022-11-01T19:15:28.781Z,54.54
2022-11-01T19:17:59.051Z,54.83
2022-11-01T19:20:29.838Z,55.20
2022-11-01T19:22:59.181Z,55.46
2022-11-01T19:25:29.643Z,55.64
2022-11-01T19:27:58.676Z,55.78
2022-11-01T19:30:28.687Z,55.58
2022-11-01T19:32:58.364Z,56.05
2022-11-01T19:35:26.165Z,55.98
2022-11-01T19:37:56.660Z,55.75
2022-11-01T19:40:28.420Z,55.71
2022-11-01T19:42:56.454Z,55.90
2022-11-01T19:45:26.727Z,56.05
2022-11-01T19:47:54.491Z,56.32
2022-11-01T19:50:23.992Z,56.34
2022-11-01T19:52:52.727Z,56.36
2022-11-01T19:55:39.093Z,56.46
2022-11-01T19:58:27.752Z,56.75
2022-11-01T20:01:37.088Z,56.46
2022-11-01T20:04:13.400Z,56.50
2022-11-01T20:06:46.629Z,56.52
2022-11-01T20:09:19.934Z,56.25
2022-11-01T20:11:49.247Z,56.11
2022-11-01T20:14:17.021Z,56.72
2022-11-01T20:16:44.954Z,56.92
2022-11-01T20:19:16.428Z,56.94
2022-11-01T20:21:45.926Z,56.78
2022-11-01T20:24:13.887Z,56.94
2022-11-01T20:26:41.652Z,57.01
2022-11-01T20:29:10.844Z,57.20
2022-11-01T20:31:38.619Z,57.14
2022-11-01T20:34:06.960Z,57.17
2022-11-01T20:36:34.714Z,57.27
2022-11-01T20:39:02.884Z,57.75
2022-11-01T20:41:30.581Z,57.44
2022-11-01T20:43:58.442Z,57.44
2022-11-01T20:46:27.564Z,57.48
2022-11-01T20:48:55.313Z,57.49
2022-11-01T20:51:23.055Z,57.24
2022-11-01T20:53:50.888Z,57.23
2022-11-01T20:56:19.047Z,56.96
2022-11-01T20:58:46.913Z,57.58
2022-11-01T21:01:15.731Z,57.41
2022-11-01T21:03:46.266Z,57.50
2022-11-01T21:06:16.642Z,57.46
2022-11-01T21:08:47.191Z,57.54
2022-11-01T21:11:22.208Z,57.60
2022-11-01T21:13:51.738Z,57.46
2022-11-01T21:16:26.644Z,57.81
2022-11-01T21:19:00.750Z,58.15
2022-11-01T21:21:32.833Z,58.07
2022-11-01T21:24:04.511Z,57.79
2022-11-01T21:26:32.992Z,57.71
2022-11-01T21:29:04.137Z,58.00
2022-11-01T21:31:33.254Z,57.91
2022-11-01T21:34:07.196Z,58.37
2022-11-01T21:36:35.895Z,58.20
2022-11-01T21:39:05.100Z,58.75
2022-11-01T21:41:39.628Z,58.85
2022-11-01T21:44:29.226Z,59.03
2022-11-01T21:46:58.735Z,59.36
2022-11-01T21:49:29.972Z,59.54
2022-11-01T21:52:00.391Z,59.72
2022-11-01T21:54:29.747Z,59.76
2022-11-01T21:56:57.990Z,59.53
2022-11-01T21:59:26.062Z,59.60
2022-11-01T22:01:54.764Z,60.01
2022-11-01T22:04:23.359Z,59.67
2022-11-01T22:06:54.294Z,59.76
2022-11-01T22:09:22.791Z,59.22
2022-11-01T22:11:50.647Z,59.51
2022-11-01T22:14:18.420Z,60.01
2022-11-01T22:16:46.164Z,60.19
2022-11-01T22:19:13.936Z,60.33
2022-11-01T22:21:41.812Z,59.99
2022-11-01T22:24:11.140Z,60.04
2022-11-01T22:26:38.931Z,60.55
2022-11-01T22:29:06.945Z,60.28
2022-11-01T22:31:34.643Z,60.30
2022-11-01T22:34:02.847Z,60.39
2022-11-01T22:36:31.809Z,60.58
2022-11-01T22:39:00.768Z,60.77
2022-11-01T22:41:33.208Z,60.72
2022-11-01T22:44:04.799Z,60.61
2022-11-01T22:46:39.711Z,60.45
2022-11-01T22:49:13.030Z,60.69
2022-11-01T22:51:44.932Z,61.08
2022-11-01T22:54:39.902Z,60.99
2022-11-01T22:57:17.645Z,60.97
2022-11-01T22:59:47.250Z,61.08
2022-11-01T23:02:26.701Z,60.93
2022-11-01T23:05:17.767Z,60.85
2022-11-01T23:07:47.221Z,61.01
2022-11-01T23:10:24.339Z,60.65
2022-11-01T23:13:20.561Z,60.46
2022-11-01T23:15:48.312Z,60.55
2022-11-01T23:18:20.863Z,60.19
2022-11-01T23:20:54.240Z,60.20
2022-11-01T23:23:22.419Z,60.42
2022-11-01T23:25:50.382Z,59.86
2022-11-01T23:28:19.539Z,59.57
2022-11-01T23:30:48.611Z,59.50
2022-11-01T23:33:18.850Z,59.11
2022-11-01T23:35:51.963Z,59.05
2022-11-01T23:38:22.932Z,59.60
2022-11-01T23:40:51.951Z,59.48
2022-11-01T23:43:28.927Z,59.59
2022-11-01T23:45:56.668Z,59.49
2022-11-01T23:48:24.780Z,59.15
2022-11-01T23:50:53.015Z,59.62
2022-11-01T23:53:23.795Z,59.83
2022-11-01T23:55:53.801Z,59.86
2022-11-01T23:58:26.206Z,59.86
